sensor_id;sensor_type;location;lat;lon;timestamp;P1;durP1;ratioP1;P2;durP2;ratioP2
22843;SDS011;11588;51.178;4.852;2024-02-26T00:01:42;5.63;;;2.88;;
22843;SDS011;11588;51.178;4.852;2024-02-26T00:04:09;4.13;;;2.72;;
22843;SDS011;11588;51.178;4.852;2024-02-26T00:06:36;5.88;;;2.67;;
22843;SDS011;11588;51.178;4.852;2024-02-26T00:09:03;4.68;;;2.65;;
22843;SDS011;11588;51.178;4.852;2024-02-26T00:11:32;5.05;;;2.33;;
22843;SDS011;11588;51.178;4.852;2024-02-26T00:13:58;5.20;;;2.50;;
22843;SDS011;11588;51.178;4.852;2024-02-26T00:16:24;5.10;;;2.60;;
22843;SDS011;11588;51.178;4.852;2024-02-26T00:18:50;4.28;;;2.80;;
22843;SDS011;11588;51.178;4.852;2024-02-26T00:21:16;3.40;;;2.38;;
22843;SDS011;11588;51.178;4.852;2024-02-26T00:23:42;5.32;;;2.50;;
22843;SDS011;11588;51.178;4.852;2024-02-26T00:26:08;9.38;;;3.10;;
22843;SDS011;11588;51.178;4.852;2024-02-26T00:28:36;5.30;;;2.35;;
22843;SDS011;11588;51.178;4.852;2024-02-26T00:31:03;4.40;;;2.67;;
22843;SDS011;11588;51.178;4.852;2024-02-26T00:33:29;3.97;;;2.63;;
22843;SDS011;11588;51.178;4.852;2024-02-26T00:35:56;5.15;;;2.40;;
22843;SDS011;11588;51.178;4.852;2024-02-26T00:38:23;4.65;;;2.70;;
22843;SDS011;11588;51.178;4.852;2024-02-26T00:40:49;5.65;;;2.67;;
22843;SDS011;11588;51.178;4.852;2024-02-26T00:43:15;4.30;;;2.47;;
22843;SDS011;11588;51.178;4.852;2024-02-26T00:45:42;5.03;;;2.50;;
22843;SDS011;11588;51.178;4.852;2024-02-26T00:48:08;4.68;;;2.60;;
22843;SDS011;11588;51.178;4.852;2024-02-26T00:50:34;3.20;;;2.58;;
22843;SDS011;11588;51.178;4.852;2024-02-26T00:53:01;4.45;;;2.40;;
22843;SDS011;11588;51.178;4.852;2024-02-26T00:55:28;3.80;;;2.65;;
22843;SDS011;11588;51.178;4.852;2024-02-26T00:57:54;4.68;;;2.83;;
22843;SDS011;11588;51.178;4.852;2024-02-26T01:00:20;4.13;;;2.63;;
22843;SDS011;11588;51.178;4.852;2024-02-26T01:02:47;4.82;;;2.80;;
22843;SDS011;11588;51.178;4.852;2024-02-26T01:05:13;6.18;;;2.70;;
22843;SDS011;11588;51.178;4.852;2024-02-26T01:07:40;5.45;;;2.80;;
22843;SDS011;11588;51.178;4.852;2024-02-26T01:10:06;4.85;;;2.70;;
22843;SDS011;11588;51.178;4.852;2024-02-26T01:12:35;5.20;;;2.90;;
22843;SDS011;11588;51.178;4.852;2024-02-26T01:15:01;4.05;;;2.97;;
22843;SDS011;11588;51.178;4.852;2024-02-26T01:17:27;6.82;;;2.60;;
22843;SDS011;11588;51.178;4.852;2024-02-26T01:19:54;5.63;;;2.80;;
22843;SDS011;11588;51.178;4.852;2024-02-26T01:22:20;5.15;;;2.53;;
22843;SDS011;11588;51.178;4.852;2024-02-26T01:24:46;4.60;;;2.58;;
22843;SDS011;11588;51.178;4.852;2024-02-26T01:27:13;4.15;;;2.55;;
22843;SDS011;11588;51.178;4.852;2024-02-26T01:29:41;3.28;;;2.50;;
22843;SDS011;11588;51.178;4.852;2024-02-26T01:32:07;3.85;;;2.90;;
22843;SDS011;11588;51.178;4.852;2024-02-26T01:34:34;5.63;;;2.65;;
22843;SDS011;11588;51.178;4.852;2024-02-26T01:37:04;3.83;;;2.78;;
22843;SDS011;11588;51.178;4.852;2024-02-26T01:39:30;3.80;;;2.83;;
22843;SDS011;11588;51.178;4.852;2024-02-26T01:41:55;4.15;;;2.75;;
22843;SDS011;11588;51.178;4.852;2024-02-26T01:44:22;3.95;;;2.50;;
22843;SDS011;11588;51.178;4.852;2024-02-26T01:46:49;3.28;;;2.63;;
22843;SDS011;11588;51.178;4.852;2024-02-26T01:49:15;4.65;;;2.78;;
22843;SDS011;11588;51.178;4.852;2024-02-26T01:51:42;3.47;;;2.47;;
22843;SDS011;11588;51.178;4.852;2024-02-26T01:54:09;4.50;;;2.60;;
22843;SDS011;11588;51.178;4.852;2024-02-26T01:56:36;4.72;;;2.45;;
22843;SDS011;11588;51.178;4.852;2024-02-26T01:59:04;4.30;;;2.80;;
22843;SDS011;11588;51.178;4.852;2024-02-26T02:01:31;5.60;;;3.22;;
22843;SDS011;11588;51.178;4.852;2024-02-26T02:03:59;4.90;;;2.95;;
22843;SDS011;11588;51.178;4.852;2024-02-26T02:06:26;6.07;;;2.88;;
22843;SDS011;11588;51.178;4.852;2024-02-26T02:08:54;5.32;;;3.15;;
22843;SDS011;11588;51.178;4.852;2024-02-26T02:11:20;6.90;;;3.78;;
22843;SDS011;11588;51.178;4.852;2024-02-26T02:13:47;4.40;;;3.40;;
22843;SDS011;11588;51.178;4.852;2024-02-26T02:16:13;7.55;;;3.72;;
22843;SDS011;11588;51.178;4.852;2024-02-26T02:18:40;6.18;;;4.40;;
22843;SDS011;11588;51.178;4.852;2024-02-26T02:21:06;6.00;;;4.32;;
22843;SDS011;11588;51.178;4.852;2024-02-26T02:23:32;7.15;;;4.15;;
22843;SDS011;11588;51.178;4.852;2024-02-26T02:25:59;6.85;;;4.70;;
22843;SDS011;11588;51.178;4.852;2024-02-26T02:28:26;5.35;;;4.53;;
22843;SDS011;11588;51.178;4.852;2024-02-26T02:30:53;6.45;;;4.72;;
22843;SDS011;11588;51.178;4.852;2024-02-26T02:33:20;7.43;;;5.35;;
22843;SDS011;11588;51.178;4.852;2024-02-26T02:35:47;6.63;;;5.30;;
22843;SDS011;11588;51.178;4.852;2024-02-26T02:38:12;9.27;;;5.50;;
22843;SDS011;11588;51.178;4.852;2024-02-26T02:40:39;9.35;;;6.20;;
22843;SDS011;11588;51.178;4.852;2024-02-26T02:43:05;9.75;;;6.72;;
22843;SDS011;11588;51.178;4.852;2024-02-26T02:45:32;9.40;;;6.07;;
22843;SDS011;11588;51.178;4.852;2024-02-26T02:47:57;7.78;;;5.90;;
22843;SDS011;11588;51.178;4.852;2024-02-26T02:50:24;7.13;;;5.78;;
22843;SDS011;11588;51.178;4.852;2024-02-26T02:52:50;9.25;;;6.40;;
22843;SDS011;11588;51.178;4.852;2024-02-26T02:55:17;9.73;;;6.60;;
22843;SDS011;11588;51.178;4.852;2024-02-26T02:57:44;9.65;;;6.32;;
22843;SDS011;11588;51.178;4.852;2024-02-26T03:00:11;12.65;;;7.43;;
22843;SDS011;11588;51.178;4.852;2024-02-26T03:02:37;10.10;;;7.35;;
22843;SDS011;11588;51.178;4.852;2024-02-26T03:05:04;12.70;;;7.97;;
22843;SDS011;11588;51.178;4.852;2024-02-26T03:07:31;12.95;;;8.52;;
22843;SDS011;11588;51.178;4.852;2024-02-26T03:09:57;11.32;;;8.23;;
22843;SDS011;11588;51.178;4.852;2024-02-26T03:12:24;12.70;;;8.93;;
22843;SDS011;11588;51.178;4.852;2024-02-26T03:14:50;13.77;;;9.63;;
22843;SDS011;11588;51.178;4.852;2024-02-26T03:17:16;12.93;;;9.65;;
22843;SDS011;11588;51.178;4.852;2024-02-26T03:19:43;15.00;;;10.77;;
22843;SDS011;11588;51.178;4.852;2024-02-26T03:22:12;16.45;;;10.93;;
22843;SDS011;11588;51.178;4.852;2024-02-26T03:24:39;17.00;;;11.32;;
22843;SDS011;11588;51.178;4.852;2024-02-26T03:27:05;15.60;;;11.48;;
22843;SDS011;11588;51.178;4.852;2024-02-26T03:29:37;16.27;;;11.07;;
22843;SDS011;11588;51.178;4.852;2024-02-26T03:32:04;18.88;;;12.57;;
22843;SDS011;11588;51.178;4.852;2024-02-26T03:34:30;16.48;;;12.23;;
22843;SDS011;11588;51.178;4.852;2024-02-26T03:36:57;17.35;;;12.43;;
22843;SDS011;11588;51.178;4.852;2024-02-26T03:39:23;15.02;;;12.05;;
22843;SDS011;11588;51.178;4.852;2024-02-26T03:41:50;16.50;;;12.75;;
22843;SDS011;11588;51.178;4.852;2024-02-26T03:44:16;16.83;;;12.10;;
22843;SDS011;11588;51.178;4.852;2024-02-26T03:46:42;17.08;;;13.20;;
22843;SDS011;11588;51.178;4.852;2024-02-26T03:49:09;16.08;;;12.23;;
22843;SDS011;11588;51.178;4.852;2024-02-26T03:51:35;18.98;;;12.55;;
22843;SDS011;11588;51.178;4.852;2024-02-26T03:54:01;14.43;;;11.50;;
22843;SDS011;11588;51.178;4.852;2024-02-26T03:56:28;14.45;;;11.77;;
22843;SDS011;11588;51.178;4.852;2024-02-26T03:58:55;15.07;;;11.55;;
22843;SDS011;11588;51.178;4.852;2024-02-26T04:01:21;14.50;;;11.82;;
22843;SDS011;11588;51.178;4.852;2024-02-26T04:03:48;13.40;;;10.48;;
22843;SDS011;11588;51.178;4.852;2024-02-26T04:06:14;16.27;;;11.30;;
22843;SDS011;11588;51.178;4.852;2024-02-26T04:08:41;13.23;;;10.73;;
22843;SDS011;11588;51.178;4.852;2024-02-26T04:11:07;12.00;;;10.48;;
22843;SDS011;11588;51.178;4.852;2024-02-26T04:13:33;11.95;;;10.05;;
22843;SDS011;11588;51.178;4.852;2024-02-26T04:16:00;12.48;;;9.73;;
22843;SDS011;11588;51.178;4.852;2024-02-26T04:18:27;10.73;;;9.18;;
22843;SDS011;11588;51.178;4.852;2024-02-26T04:20:54;10.38;;;9.27;;
22843;SDS011;11588;51.178;4.852;2024-02-26T04:23:20;13.23;;;9.07;;
22843;SDS011;11588;51.178;4.852;2024-02-26T04:25:47;10.80;;;9.38;;
22843;SDS011;11588;51.178;4.852;2024-02-26T04:28:13;11.23;;;9.40;;
22843;SDS011;11588;51.178;4.852;2024-02-26T04:30:40;10.50;;;8.98;;
22843;SDS011;11588;51.178;4.852;2024-02-26T04:33:07;11.82;;;9.00;;
22843;SDS011;11588;51.178;4.852;2024-02-26T04:35:33;10.77;;;8.73;;
22843;SDS011;11588;51.178;4.852;2024-02-26T04:38:01;10.50;;;7.97;;
22843;SDS011;11588;51.178;4.852;2024-02-26T04:40:27;9.10;;;8.20;;
22843;SDS011;11588;51.178;4.852;2024-02-26T04:42:54;12.38;;;8.60;;
22843;SDS011;11588;51.178;4.852;2024-02-26T04:45:20;10.48;;;8.35;;
22843;SDS011;11588;51.178;4.852;2024-02-26T04:47:47;10.80;;;8.48;;
22843;SDS011;11588;51.178;4.852;2024-02-26T04:50:15;10.20;;;8.38;;
22843;SDS011;11588;51.178;4.852;2024-02-26T04:52:40;11.50;;;8.93;;
22843;SDS011;11588;51.178;4.852;2024-02-26T04:55:07;11.32;;;8.55;;
22843;SDS011;11588;51.178;4.852;2024-02-26T04:57:34;11.95;;;9.38;;
22843;SDS011;11588;51.178;4.852;2024-02-26T05:00:00;11.35;;;9.27;;
22843;SDS011;11588;51.178;4.852;2024-02-26T05:02:26;11.32;;;8.70;;
22843;SDS011;11588;51.178;4.852;2024-02-26T05:04:53;11.93;;;8.95;;
22843;SDS011;11588;51.178;4.852;2024-02-26T05:07:18;11.27;;;8.93;;
22843;SDS011;11588;51.178;4.852;2024-02-26T05:09:46;10.30;;;8.63;;
22843;SDS011;11588;51.178;4.852;2024-02-26T05:12:12;9.88;;;7.68;;
22843;SDS011;11588;51.178;4.852;2024-02-26T05:14:39;10.18;;;7.57;;
22843;SDS011;11588;51.178;4.852;2024-02-26T05:17:05;11.73;;;7.97;;
22843;SDS011;11588;51.178;4.852;2024-02-26T05:19:31;10.82;;;7.57;;
22843;SDS011;11588;51.178;4.852;2024-02-26T05:21:57;9.93;;;7.93;;
22843;SDS011;11588;51.178;4.852;2024-02-26T05:24:23;10.35;;;7.60;;
22843;SDS011;11588;51.178;4.852;2024-02-26T05:26:49;10.40;;;7.60;;
22843;SDS011;11588;51.178;4.852;2024-02-26T05:29:18;8.35;;;7.45;;
22843;SDS011;11588;51.178;4.852;2024-02-26T05:31:44;9.73;;;7.95;;
22843;SDS011;11588;51.178;4.852;2024-02-26T05:34:10;8.95;;;6.97;;
22843;SDS011;11588;51.178;4.852;2024-02-26T05:36:37;9.93;;;7.53;;
22843;SDS011;11588;51.178;4.852;2024-02-26T05:39:03;9.15;;;7.45;;
22843;SDS011;11588;51.178;4.852;2024-02-26T05:41:30;7.45;;;6.38;;
22843;SDS011;11588;51.178;4.852;2024-02-26T05:43:58;9.10;;;6.70;;
22843;SDS011;11588;51.178;4.852;2024-02-26T05:46:23;9.90;;;7.35;;
22843;SDS011;11588;51.178;4.852;2024-02-26T05:48:52;9.10;;;6.72;;
22843;SDS011;11588;51.178;4.852;2024-02-26T05:51:18;7.82;;;6.63;;
22843;SDS011;11588;51.178;4.852;2024-02-26T05:53:45;9.10;;;5.80;;
22843;SDS011;11588;51.178;4.852;2024-02-26T05:56:13;7.80;;;5.97;;
22843;SDS011;11588;51.178;4.852;2024-02-26T05:58:39;7.22;;;5.60;;
22843;SDS011;11588;51.178;4.852;2024-02-26T06:01:05;7.70;;;6.00;;
22843;SDS011;11588;51.178;4.852;2024-02-26T06:03:31;8.52;;;6.57;;
22843;SDS011;11588;51.178;4.852;2024-02-26T06:05:58;8.90;;;6.13;;
22843;SDS011;11588;51.178;4.852;2024-02-26T06:08:24;10.65;;;6.38;;
22843;SDS011;11588;51.178;4.852;2024-02-26T06:10:50;8.75;;;6.50;;
22843;SDS011;11588;51.178;4.852;2024-02-26T06:13:16;7.80;;;7.00;;
22843;SDS011;11588;51.178;4.852;2024-02-26T06:15:42;13.13;;;8.00;;
22843;SDS011;11588;51.178;4.852;2024-02-26T06:18:09;9.55;;;8.13;;
22843;SDS011;11588;51.178;4.852;2024-02-26T06:20:35;8.73;;;7.78;;
22843;SDS011;11588;51.178;4.852;2024-02-26T06:23:01;8.70;;;7.80;;
22843;SDS011;11588;51.178;4.852;2024-02-26T06:25:28;12.10;;;7.50;;
22843;SDS011;11588;51.178;4.852;2024-02-26T06:27:54;10.27;;;7.50;;
22843;SDS011;11588;51.178;4.852;2024-02-26T06:30:21;10.15;;;8.13;;
22843;SDS011;11588;51.178;4.852;2024-02-26T06:32:47;11.02;;;8.77;;
22843;SDS011;11588;51.178;4.852;2024-02-26T06:35:13;9.80;;;7.47;;
22843;SDS011;11588;51.178;4.852;2024-02-26T06:37:40;8.43;;;7.20;;
22843;SDS011;11588;51.178;4.852;2024-02-26T06:40:06;10.35;;;7.97;;
22843;SDS011;11588;51.178;4.852;2024-02-26T06:42:33;10.05;;;7.80;;
22843;SDS011;11588;51.178;4.852;2024-02-26T06:45:00;11.73;;;8.70;;
22843;SDS011;11588;51.178;4.852;2024-02-26T06:47:26;10.35;;;7.85;;
22843;SDS011;11588;51.178;4.852;2024-02-26T06:49:53;11.00;;;8.35;;
22843;SDS011;11588;51.178;4.852;2024-02-26T06:52:19;10.82;;;8.40;;
22843;SDS011;11588;51.178;4.852;2024-02-26T06:54:45;9.65;;;8.65;;
22843;SDS011;11588;51.178;4.852;2024-02-26T06:57:14;9.95;;;8.85;;
22843;SDS011;11588;51.178;4.852;2024-02-26T06:59:40;11.48;;;8.80;;
22843;SDS011;11588;51.178;4.852;2024-02-26T07:02:06;13.20;;;9.35;;
22843;SDS011;11588;51.178;4.852;2024-02-26T07:04:32;11.15;;;8.85;;
22843;SDS011;11588;51.178;4.852;2024-02-26T07:07:00;11.88;;;8.10;;
22843;SDS011;11588;51.178;4.852;2024-02-26T07:09:26;9.27;;;8.23;;
22843;SDS011;11588;51.178;4.852;2024-02-26T07:11:52;9.73;;;8.32;;
22843;SDS011;11588;51.178;4.852;2024-02-26T07:14:19;11.07;;;8.70;;
22843;SDS011;11588;51.178;4.852;2024-02-26T07:16:45;11.43;;;9.13;;
22843;SDS011;11588;51.178;4.852;2024-02-26T07:19:11;11.95;;;8.73;;
22843;SDS011;11588;51.178;4.852;2024-02-26T07:21:38;12.88;;;9.02;;
22843;SDS011;11588;51.178;4.852;2024-02-26T07:24:05;11.15;;;8.75;;
22843;SDS011;11588;51.178;4.852;2024-02-26T07:26:31;10.23;;;8.63;;
22843;SDS011;11588;51.178;4.852;2024-02-26T07:28:57;9.88;;;8.02;;
22843;SDS011;11588;51.178;4.852;2024-02-26T07:31:24;10.07;;;8.98;;
22843;SDS011;11588;51.178;4.852;2024-02-26T07:33:50;10.45;;;8.07;;
22843;SDS011;11588;51.178;4.852;2024-02-26T07:36:17;11.88;;;9.23;;
22843;SDS011;11588;51.178;4.852;2024-02-26T07:38:44;12.13;;;8.13;;
22843;SDS011;11588;51.178;4.852;2024-02-26T07:41:11;12.90;;;8.80;;
22843;SDS011;11588;51.178;4.852;2024-02-26T07:43:37;10.27;;;8.60;;
22843;SDS011;11588;51.178;4.852;2024-02-26T07:46:04;9.73;;;8.73;;
22843;SDS011;11588;51.178;4.852;2024-02-26T07:48:30;9.85;;;8.15;;
22843;SDS011;11588;51.178;4.852;2024-02-26T07:50:57;9.90;;;8.25;;
22843;SDS011;11588;51.178;4.852;2024-02-26T07:53:24;8.77;;;7.47;;
22843;SDS011;11588;51.178;4.852;2024-02-26T07:55:50;10.45;;;8.00;;
22843;SDS011;11588;51.178;4.852;2024-02-26T07:58:17;8.73;;;7.38;;
22843;SDS011;11588;51.178;4.852;2024-02-26T08:00:43;8.98;;;7.78;;
22843;SDS011;11588;51.178;4.852;2024-02-26T08:03:09;9.85;;;7.88;;
22843;SDS011;11588;51.178;4.852;2024-02-26T08:05:35;8.65;;;7.57;;
22843;SDS011;11588;51.178;4.852;2024-02-26T08:08:07;9.60;;;7.60;;
22843;SDS011;11588;51.178;4.852;2024-02-26T08:10:34;10.30;;;8.38;;
22843;SDS011;11588;51.178;4.852;2024-02-26T08:13:00;9.73;;;8.45;;
22843;SDS011;11588;51.178;4.852;2024-02-26T08:15:32;9.50;;;8.50;;
22843;SDS011;11588;51.178;4.852;2024-02-26T08:18:00;9.93;;;8.23;;
22843;SDS011;11588;51.178;4.852;2024-02-26T08:20:30;10.98;;;8.40;;
22843;SDS011;11588;51.178;4.852;2024-02-26T08:22:56;10.07;;;8.43;;
22843;SDS011;11588;51.178;4.852;2024-02-26T08:25:23;12.30;;;8.90;;
22843;SDS011;11588;51.178;4.852;2024-02-26T08:27:50;10.80;;;8.60;;
22843;SDS011;11588;51.178;4.852;2024-02-26T08:30:16;11.40;;;9.00;;
22843;SDS011;11588;51.178;4.852;2024-02-26T08:32:43;10.98;;;9.27;;
22843;SDS011;11588;51.178;4.852;2024-02-26T08:35:10;12.98;;;9.25;;
22843;SDS011;11588;51.178;4.852;2024-02-26T08:37:37;11.35;;;9.02;;
22843;SDS011;11588;51.178;4.852;2024-02-26T08:40:03;12.05;;;9.40;;
22843;SDS011;11588;51.178;4.852;2024-02-26T08:42:30;11.75;;;9.38;;
22843;SDS011;11588;51.178;4.852;2024-02-26T08:44:56;12.02;;;9.73;;
22843;SDS011;11588;51.178;4.852;2024-02-26T08:47:26;14.43;;;10.18;;
22843;SDS011;11588;51.178;4.852;2024-02-26T08:49:52;11.85;;;9.68;;
22843;SDS011;11588;51.178;4.852;2024-02-26T08:52:19;12.02;;;9.95;;
22843;SDS011;11588;51.178;4.852;2024-02-26T08:54:45;13.10;;;10.25;;
22843;SDS011;11588;51.178;4.852;2024-02-26T08:57:12;12.48;;;9.43;;
22843;SDS011;11588;51.178;4.852;2024-02-26T08:59:38;12.75;;;10.02;;
22843;SDS011;11588;51.178;4.852;2024-02-26T09:02:04;12.52;;;10.48;;
22843;SDS011;11588;51.178;4.852;2024-02-26T09:04:31;12.10;;;9.63;;
22843;SDS011;11588;51.178;4.852;2024-02-26T09:06:57;12.43;;;9.95;;
22843;SDS011;11588;51.178;4.852;2024-02-26T09:09:24;13.32;;;10.70;;
22843;SDS011;11588;51.178;4.852;2024-02-26T09:11:52;12.77;;;10.00;;
22843;SDS011;11588;51.178;4.852;2024-02-26T09:14:18;14.77;;;10.27;;
22843;SDS011;11588;51.178;4.852;2024-02-26T09:16:44;13.77;;;10.38;;
22843;SDS011;11588;51.178;4.852;2024-02-26T09:19:11;13.20;;;10.25;;
22843;SDS011;11588;51.178;4.852;2024-02-26T09:21:41;13.50;;;10.50;;
22843;SDS011;11588;51.178;4.852;2024-02-26T09:24:10;12.27;;;10.00;;
22843;SDS011;11588;51.178;4.852;2024-02-26T09:26:37;13.85;;;9.73;;
22843;SDS011;11588;51.178;4.852;2024-02-26T09:29:04;12.75;;;10.52;;
22843;SDS011;11588;51.178;4.852;2024-02-26T09:31:30;14.32;;;10.68;;
22843;SDS011;11588;51.178;4.852;2024-02-26T09:33:56;12.65;;;10.85;;
22843;SDS011;11588;51.178;4.852;2024-02-26T09:36:23;11.75;;;9.88;;
22843;SDS011;11588;51.178;4.852;2024-02-26T09:38:49;13.73;;;10.73;;
22843;SDS011;11588;51.178;4.852;2024-02-26T09:41:15;14.25;;;10.30;;
22843;SDS011;11588;51.178;4.852;2024-02-26T09:43:44;13.23;;;10.93;;
22843;SDS011;11588;51.178;4.852;2024-02-26T09:46:11;11.80;;;9.98;;
22843;SDS011;11588;51.178;4.852;2024-02-26T09:48:38;11.77;;;10.05;;
22843;SDS011;11588;51.178;4.852;2024-02-26T09:51:05;12.40;;;10.57;;
22843;SDS011;11588;51.178;4.852;2024-02-26T09:53:32;12.15;;;9.73;;
22843;SDS011;11588;51.178;4.852;2024-02-26T09:55:59;10.40;;;8.85;;
22843;SDS011;11588;51.178;4.852;2024-02-26T09:58:27;12.13;;;9.68;;
22843;SDS011;11588;51.178;4.852;2024-02-26T10:00:56;11.02;;;9.68;;
22843;SDS011;11588;51.178;4.852;2024-02-26T10:03:25;12.75;;;9.80;;
22843;SDS011;11588;51.178;4.852;2024-02-26T10:05:53;13.63;;;10.45;;
22843;SDS011;11588;51.178;4.852;2024-02-26T10:08:23;13.00;;;10.25;;
22843;SDS011;11588;51.178;4.852;2024-02-26T10:10:50;13.90;;;10.95;;
22843;SDS011;11588;51.178;4.852;2024-02-26T10:13:16;12.98;;;11.02;;
22843;SDS011;11588;51.178;4.852;2024-02-26T10:15:43;15.15;;;10.95;;
22843;SDS011;11588;51.178;4.852;2024-02-26T10:18:09;14.38;;;11.55;;
22843;SDS011;11588;51.178;4.852;2024-02-26T10:20:36;19.27;;;12.05;;
22843;SDS011;11588;51.178;4.852;2024-02-26T10:23:02;16.27;;;10.85;;
22843;SDS011;11588;51.178;4.852;2024-02-26T10:25:29;15.52;;;12.20;;
22843;SDS011;11588;51.178;4.852;2024-02-26T10:27:59;15.57;;;12.80;;
22843;SDS011;11588;51.178;4.852;2024-02-26T10:30:26;15.20;;;11.20;;
22843;SDS011;11588;51.178;4.852;2024-02-26T10:32:53;16.40;;;12.25;;
22843;SDS011;11588;51.178;4.852;2024-02-26T10:35:20;14.73;;;12.25;;
22843;SDS011;11588;51.178;4.852;2024-02-26T10:37:46;16.92;;;12.48;;
22843;SDS011;11588;51.178;4.852;2024-02-26T10:40:13;15.50;;;11.60;;
22843;SDS011;11588;51.178;4.852;2024-02-26T10:42:40;15.65;;;12.07;;
22843;SDS011;11588;51.178;4.852;2024-02-26T10:45:07;18.50;;;12.95;;
22843;SDS011;11588;51.178;4.852;2024-02-26T10:47:35;16.58;;;12.05;;
22843;SDS011;11588;51.178;4.852;2024-02-26T10:50:02;16.33;;;13.10;;
22843;SDS011;11588;51.178;4.852;2024-02-26T10:52:31;16.55;;;12.75;;
22843;SDS011;11588;51.178;4.852;2024-02-26T10:55:00;17.15;;;12.82;;
22843;SDS011;11588;51.178;4.852;2024-02-26T10:57:33;16.23;;;12.73;;
22843;SDS011;11588;51.178;4.852;2024-02-26T11:00:01;18.27;;;12.80;;
22843;SDS011;11588;51.178;4.852;2024-02-26T11:02:33;17.60;;;13.65;;
22843;SDS011;11588;51.178;4.852;2024-02-26T11:05:02;18.90;;;13.20;;
22843;SDS011;11588;51.178;4.852;2024-02-26T11:07:30;17.52;;;12.23;;
22843;SDS011;11588;51.178;4.852;2024-02-26T11:09:59;17.88;;;12.60;;
22843;SDS011;11588;51.178;4.852;2024-02-26T11:12:27;16.15;;;12.65;;
22843;SDS011;11588;51.178;4.852;2024-02-26T11:14:55;16.63;;;12.55;;
22843;SDS011;11588;51.178;4.852;2024-02-26T11:17:22;14.80;;;11.65;;
22843;SDS011;11588;51.178;4.852;2024-02-26T11:19:49;16.48;;;11.57;;
22843;SDS011;11588;51.178;4.852;2024-02-26T11:22:16;17.40;;;12.35;;
22843;SDS011;11588;51.178;4.852;2024-02-26T11:24:43;13.57;;;10.88;;
22843;SDS011;11588;51.178;4.852;2024-02-26T11:27:10;14.63;;;10.65;;
22843;SDS011;11588;51.178;4.852;2024-02-26T11:29:38;14.00;;;10.70;;
22843;SDS011;11588;51.178;4.852;2024-02-26T11:32:06;13.82;;;10.90;;
22843;SDS011;11588;51.178;4.852;2024-02-26T11:34:33;16.58;;;11.38;;
22843;SDS011;11588;51.178;4.852;2024-02-26T11:37:08;14.25;;;10.80;;
22843;SDS011;11588;51.178;4.852;2024-02-26T11:39:39;13.30;;;10.35;;
22843;SDS011;11588;51.178;4.852;2024-02-26T11:42:06;16.40;;;11.10;;
22843;SDS011;11588;51.178;4.852;2024-02-26T11:44:32;15.93;;;11.07;;
22843;SDS011;11588;51.178;4.852;2024-02-26T11:46:59;15.02;;;11.80;;
22843;SDS011;11588;51.178;4.852;2024-02-26T11:49:37;17.70;;;12.00;;
22843;SDS011;11588;51.178;4.852;2024-02-26T11:52:05;17.20;;;12.50;;
22843;SDS011;11588;51.178;4.852;2024-02-26T11:59:44;20.48;;;11.55;;
22843;SDS011;11588;51.178;4.852;2024-02-26T12:02:10;19.55;;;11.55;;
22843;SDS011;11588;51.178;4.852;2024-02-26T12:04:38;17.42;;;11.80;;
22843;SDS011;11588;51.178;4.852;2024-02-26T12:07:06;17.88;;;12.60;;
22843;SDS011;11588;51.178;4.852;2024-02-26T12:09:34;19.60;;;12.90;;
22843;SDS011;11588;51.178;4.852;2024-02-26T12:12:03;18.30;;;12.23;;
22843;SDS011;11588;51.178;4.852;2024-02-26T12:14:38;18.20;;;12.32;;
22843;SDS011;11588;51.178;4.852;2024-02-26T12:17:07;21.05;;;13.63;;
22843;SDS011;11588;51.178;4.852;2024-02-26T12:19:45;21.33;;;13.50;;
22843;SDS011;11588;51.178;4.852;2024-02-26T12:22:13;18.92;;;13.15;;
22843;SDS011;11588;51.178;4.852;2024-02-26T12:24:42;23.00;;;14.63;;
22843;SDS011;11588;51.178;4.852;2024-02-26T12:27:09;18.83;;;12.43;;
22843;SDS011;11588;51.178;4.852;2024-02-26T12:29:35;20.35;;;13.05;;
22843;SDS011;11588;51.178;4.852;2024-02-26T12:32:03;20.20;;;13.27;;
22843;SDS011;11588;51.178;4.852;2024-02-26T12:34:30;17.85;;;11.68;;
22843;SDS011;11588;51.178;4.852;2024-02-26T12:36:58;16.02;;;10.88;;
22843;SDS011;11588;51.178;4.852;2024-02-26T12:39:24;17.73;;;11.65;;
22843;SDS011;11588;51.178;4.852;2024-02-26T12:41:51;20.77;;;14.02;;
22843;SDS011;11588;51.178;4.852;2024-02-26T12:44:18;20.63;;;12.63;;
22843;SDS011;11588;51.178;4.852;2024-02-26T12:46:45;17.33;;;12.20;;
22843;SDS011;11588;51.178;4.852;2024-02-26T12:49:14;17.55;;;12.00;;
22843;SDS011;11588;51.178;4.852;2024-02-26T12:51:43;18.77;;;12.93;;
22843;SDS011;11588;51.178;4.852;2024-02-26T12:54:14;17.45;;;12.68;;
22843;SDS011;11588;51.178;4.852;2024-02-26T12:56:41;18.60;;;13.05;;
22843;SDS011;11588;51.178;4.852;2024-02-26T12:59:08;21.83;;;14.05;;
22843;SDS011;11588;51.178;4.852;2024-02-26T13:01:35;16.52;;;12.30;;
22843;SDS011;11588;51.178;4.852;2024-02-26T13:04:03;19.17;;;13.23;;
22843;SDS011;11588;51.178;4.852;2024-02-26T13:06:32;18.10;;;12.15;;
22843;SDS011;11588;51.178;4.852;2024-02-26T13:09:04;18.63;;;12.20;;
22843;SDS011;11588;51.178;4.852;2024-02-26T13:11:39;16.58;;;11.80;;
22843;SDS011;11588;51.178;4.852;2024-02-26T13:14:06;16.70;;;11.48;;
22843;SDS011;11588;51.178;4.852;2024-02-26T13:16:33;17.90;;;11.35;;
22843;SDS011;11588;51.178;4.852;2024-02-26T13:21:38;14.77;;;10.82;;
22843;SDS011;11588;51.178;4.852;2024-02-26T13:24:05;16.57;;;11.53;;
22843;SDS011;11588;51.178;4.852;2024-02-26T13:26:32;20.13;;;12.38;;
22843;SDS011;11588;51.178;4.852;2024-02-26T13:29:00;14.10;;;11.05;;
22843;SDS011;11588;51.178;4.852;2024-02-26T13:31:26;14.82;;;11.23;;
22843;SDS011;11588;51.178;4.852;2024-02-26T13:33:57;17.33;;;11.77;;
22843;SDS011;11588;51.178;4.852;2024-02-26T13:36:24;15.23;;;11.32;;
22843;SDS011;11588;51.178;4.852;2024-02-26T13:38:52;18.13;;;12.30;;
22843;SDS011;11588;51.178;4.852;2024-02-26T13:41:19;14.50;;;11.32;;
22843;SDS011;11588;51.178;4.852;2024-02-26T13:43:44;17.60;;;11.32;;
22843;SDS011;11588;51.178;4.852;2024-02-26T13:46:11;14.25;;;11.45;;
22843;SDS011;11588;51.178;4.852;2024-02-26T13:48:39;14.65;;;11.30;;
22843;SDS011;11588;51.178;4.852;2024-02-26T13:51:06;14.77;;;11.40;;
22843;SDS011;11588;51.178;4.852;2024-02-26T13:53:34;15.73;;;11.15;;
22843;SDS011;11588;51.178;4.852;2024-02-26T13:56:04;16.70;;;11.82;;
22843;SDS011;11588;51.178;4.852;2024-02-26T13:58:32;18.00;;;12.32;;
22843;SDS011;11588;51.178;4.852;2024-02-26T14:00:59;14.18;;;11.43;;
22843;SDS011;11588;51.178;4.852;2024-02-26T14:03:26;17.83;;;12.05;;
22843;SDS011;11588;51.178;4.852;2024-02-26T14:05:52;15.68;;;11.57;;
22843;SDS011;11588;51.178;4.852;2024-02-26T14:08:19;15.38;;;11.82;;
22843;SDS011;11588;51.178;4.852;2024-02-26T14:10:46;18.23;;;12.15;;
22843;SDS011;11588;51.178;4.852;2024-02-26T14:13:13;15.30;;;11.65;;
22843;SDS011;11588;51.178;4.852;2024-02-26T14:15:39;15.60;;;11.13;;
22843;SDS011;11588;51.178;4.852;2024-02-26T14:18:06;17.50;;;11.55;;
22843;SDS011;11588;51.178;4.852;2024-02-26T14:20:34;14.73;;;11.38;;
22843;SDS011;11588;51.178;4.852;2024-02-26T14:23:01;15.80;;;12.13;;
22843;SDS011;11588;51.178;4.852;2024-02-26T14:25:28;14.45;;;11.93;;
22843;SDS011;11588;51.178;4.852;2024-02-26T14:27:55;17.38;;;12.43;;
22843;SDS011;11588;51.178;4.852;2024-02-26T14:30:21;13.18;;;10.98;;
22843;SDS011;11588;51.178;4.852;2024-02-26T14:32:48;16.30;;;11.07;;
22843;SDS011;11588;51.178;4.852;2024-02-26T14:35:15;14.48;;;11.20;;
22843;SDS011;11588;51.178;4.852;2024-02-26T14:37:45;16.77;;;10.57;;
22843;SDS011;11588;51.178;4.852;2024-02-26T14:40:14;13.55;;;10.35;;